sensor_id;sensor_type;location;lat;lon;timestamp;pressure;altitude;pressure_sealevel;temperature;humidity
30421;BME280;17218;54.070;10.012;2023-03-19T00:02:18;101029.69;;;8.83;100.00
30421;BME280;17218;54.070;10.012;2023-03-19T00:04:46;101034.88;;;8.81;100.00
30421;BME280;17218;54.070;10.012;2023-03-19T00:07:14;101038.31;;;8.83;100.00
30421;BME280;17218;54.070;10.012;2023-03-19T00:09:41;101029.75;;;8.95;100.00
30421;BME280;17218;54.070;10.012;2023-03-19T00:12:08;101024.63;;;9.05;100.00
30421;BME280;17218;54.070;10.012;2023-03-19T00:14:34;101025.56;;;9.23;100.00
30421;BME280;17218;54.070;10.012;2023-03-19T00:17:01;101028.13;;;9.26;100.00
30421;BME280;17218;54.070;10.012;2023-03-19T00:19:28;101022.97;;;9.29;100.00
30421;BME280;17218;54.070;10.012;2023-03-19T00:21:55;101034.16;;;9.22;100.00
30421;BME280;17218;54.070;10.012;2023-03-19T00:24:22;101032.44;;;9.25;100.00
30421;BME280;17218;54.070;10.012;2023-03-19T00:26:49;101023.81;;;9.25;100.00
30421;BME280;17218;54.070;10.012;2023-03-19T00:29:16;101029.84;;;9.28;100.00
30421;BME280;17218;54.070;10.012;2023-03-19T00:31:43;101028.13;;;9.27;100.00
30421;BME280;17218;54.070;10.012;2023-03-19T00:34:09;101029.84;;;9.27;100.00
30421;BME280;17218;54.070;10.012;2023-03-19T00:36:37;101018.66;;;9.31;100.00
30421;BME280;17218;54.070;10.012;2023-03-19T00:39:05;101016.97;;;9.33;100.00
30421;BME280;17218;54.070;10.012;2023-03-19T00:41:31;101001.41;;;9.28;100.00
30421;BME280;17218;54.070;10.012;2023-03-19T00:43:58;101017.78;;;9.19;100.00
30421;BME280;17218;54.070;10.012;2023-03-19T00:46:25;101010.00;;;9.04;100.00
30421;BME280;17218;54.070;10.012;2023-03-19T00:48:52;101028.91;;;8.97;100.00
30421;BME280;17218;54.070;10.012;2023-03-19T00:51:21;101025.44;;;8.93;100.00
30421;BME280;17218;54.070;10.012;2023-03-19T00:53:48;101036.59;;;8.82;100.00
30421;BME280;17218;54.070;10.012;2023-03-19T00:56:16;101032.25;;;8.75;100.00
30421;BME280;17218;54.070;10.012;2023-03-19T00:58:43;101022.78;;;8.79;100.00
30421;BME280;17218;54.070;10.012;2023-03-19T01:01:12;101024.53;;;8.81;100.00
30421;BME280;17218;54.070;10.012;2023-03-19T01:03:39;101029.66;;;8.72;100.00
30421;BME280;17218;54.070;10.012;2023-03-19T01:06:06;101029.69;;;8.78;100.00
30421;BME280;17218;54.070;10.012;2023-03-19T01:08:32;101033.88;;;8.61;100.00
30421;BME280;17218;54.070;10.012;2023-03-19T01:11:04;101030.38;;;8.55;100.00
30421;BME280;17218;54.070;10.012;2023-03-19T01:13:32;101033.78;;;8.48;100.00
30421;BME280;17218;54.070;10.012;2023-03-19T01:15:59;101022.53;;;8.38;100.00
30421;BME280;17218;54.070;10.012;2023-03-19T01:18:25;101028.56;;;8.37;100.00
30421;BME280;17218;54.070;10.012;2023-03-19T01:20:51;101032.84;;;8.33;100.00
30421;BME280;17218;54.070;10.012;2023-03-19T01:23:18;101035.44;;;8.38;100.00
30421;BME280;17218;54.070;10.012;2023-03-19T01:25:44;101032.91;;;8.44;100.00
30421;BME280;17218;54.070;10.012;2023-03-19T01:28:11;101034.63;;;8.45;100.00
30421;BME280;17218;54.070;10.012;2023-03-19T01:30:39;101030.31;;;8.43;100.00
30421;BME280;17218;54.070;10.012;2023-03-19T01:33:06;101022.53;;;8.37;100.00
30421;BME280;17218;54.070;10.012;2023-03-19T01:35:32;101029.38;;;8.28;100.00
30421;BME280;17218;54.070;10.012;2023-03-19T01:37:59;101026.72;;;8.19;100.00
30421;BME280;17218;54.070;10.012;2023-03-19T01:40:25;101026.66;;;8.11;100.00
30421;BME280;17218;54.070;10.012;2023-03-19T01:42:54;101018.91;;;8.11;100.00
30421;BME280;17218;54.070;10.012;2023-03-19T01:45:32;101019.75;;;8.08;100.00
30421;BME280;17218;54.070;10.012;2023-03-19T01:48:00;101024.03;;;8.05;100.00
30421;BME280;17218;54.070;10.012;2023-03-19T01:50:30;101018.84;;;8.02;100.00
30421;BME280;17218;54.070;10.012;2023-03-19T01:53:00;101018.78;;;7.94;100.00
30421;BME280;17218;54.070;10.012;2023-03-19T01:55:27;101015.31;;;7.92;100.00
30421;BME280;17218;54.070;10.012;2023-03-19T01:57:54;101023.03;;;7.90;100.00
30421;BME280;17218;54.070;10.012;2023-03-19T02:00:20;101005.78;;;7.83;100.00
30421;BME280;17218;54.070;10.012;2023-03-19T02:02:51;101015.28;;;7.84;100.00
30421;BME280;17218;54.070;10.012;2023-03-19T02:05:20;101020.41;;;7.82;100.00
30421;BME280;17218;54.070;10.012;2023-03-19T02:07:51;101015.22;;;7.79;100.00
30421;BME280;17218;54.070;10.012;2023-03-19T02:10:18;101022.06;;;7.74;100.00
30421;BME280;17218;54.070;10.012;2023-03-19T02:12:46;101021.25;;;7.80;100.00
30421;BME280;17218;54.070;10.012;2023-03-19T02:15:12;101020.44;;;7.84;100.00
30421;BME280;17218;54.070;10.012;2023-03-19T02:17:40;101020.44;;;7.84;100.00
30421;BME280;17218;54.070;10.012;2023-03-19T02:20:12;101010.03;;;7.74;100.00
30421;BME280;17218;54.070;10.012;2023-03-19T02:22:48;101007.47;;;7.74;100.00
30421;BME280;17218;54.070;10.012;2023-03-19T02:25:21;101008.28;;;7.72;100.00
30421;BME280;17218;54.070;10.012;2023-03-19T02:27:51;101009.97;;;7.70;100.00
30421;BME280;17218;54.070;10.012;2023-03-19T02:30:22;101018.59;;;7.70;100.00
30421;BME280;17218;54.070;10.012;2023-03-19T02:32:49;101012.59;;;7.73;100.00
30421;BME280;17218;54.070;10.012;2023-03-19T02:35:16;101012.56;;;7.70;100.00
30421;BME280;17218;54.070;10.012;2023-03-19T02:37:42;101012.47;;;7.60;100.00
30421;BME280;17218;54.070;10.012;2023-03-19T02:40:12;101017.59;;;7.56;100.00
30421;BME280;17218;54.070;10.012;2023-03-19T02:42:40;101020.19;;;7.60;100.00
30421;BME280;17218;54.070;10.012;2023-03-19T02:45:09;101027.00;;;7.50;100.00
30421;BME280;17218;54.070;10.012;2023-03-19T02:47:36;101020.97;;;7.51;100.00
30421;BME280;17218;54.070;10.012;2023-03-19T02:50:02;101012.16;;;7.29;100.00
30421;BME280;17218;54.070;10.012;2023-03-19T02:52:29;101029.28;;;7.24;100.00
30421;BME280;17218;54.070;10.012;2023-03-19T02:54:55;101025.06;;;7.31;100.00
30421;BME280;17218;54.070;10.012;2023-03-19T02:57:22;101020.88;;;7.42;100.00
30421;BME280;17218;54.070;10.012;2023-03-19T02:59:48;101020.97;;;7.48;100.00
30421;BME280;17218;54.070;10.012;2023-03-19T03:02:16;101019.09;;;7.33;100.00
30421;BME280;17218;54.070;10.012;2023-03-19T03:04:43;101019.88;;;7.29;100.00
30421;BME280;17218;54.070;10.012;2023-03-19T03:07:10;101032.75;;;7.24;100.00
30421;BME280;17218;54.070;10.012;2023-03-19T03:09:37;101030.16;;;7.23;100.00
30421;BME280;17218;54.070;10.012;2023-03-19T03:12:04;101030.25;;;7.32;100.00
30421;BME280;17218;54.070;10.012;2023-03-19T03:14:31;101030.09;;;7.21;100.00
30421;BME280;17218;54.070;10.012;2023-03-19T03:16:57;101033.53;;;7.20;100.00
30421;BME280;17218;54.070;10.012;2023-03-19T03:19:25;101023.28;;;7.25;100.00
30421;BME280;17218;54.070;10.012;2023-03-19T03:21:52;101024.16;;;7.27;100.00
30421;BME280;17218;54.070;10.012;2023-03-19T03:24:18;101023.22;;;7.19;100.00
30421;BME280;17218;54.070;10.012;2023-03-19T03:26:45;101021.44;;;7.13;100.00
30421;BME280;17218;54.070;10.012;2023-03-19T03:29:11;101018.88;;;7.14;100.00
30421;BME280;17218;54.070;10.012;2023-03-19T03:31:38;101030.94;;;7.17;100.00
30421;BME280;17218;54.070;10.012;2023-03-19T03:34:04;101031.78;;;7.18;100.00
30421;BME280;17218;54.070;10.012;2023-03-19T03:36:32;101030.97;;;7.22;100.00
30421;BME280;17218;54.070;10.012;2023-03-19T03:38:59;101025.81;;;7.22;100.00
30421;BME280;17218;54.070;10.012;2023-03-19T03:41:25;101026.78;;;7.28;100.00
30421;BME280;17218;54.070;10.012;2023-03-19T03:43:52;101020.66;;;7.22;100.00
30421;BME280;17218;54.070;10.012;2023-03-19T03:46:18;101029.16;;;7.13;100.00
30421;BME280;17218;54.070;10.012;2023-03-19T03:48:45;101033.50;;;7.15;100.00
30421;BME280;17218;54.070;10.012;2023-03-19T03:51:13;101028.25;;;7.08;100.00
30421;BME280;17218;54.070;10.012;2023-03-19T03:53:41;101033.38;;;7.06;100.00
30421;BME280;17218;54.070;10.012;2023-03-19T03:56:07;101028.28;;;7.11;100.00
30421;BME280;17218;54.070;10.012;2023-03-19T03:58:34;101020.53;;;7.09;100.00
30421;BME280;17218;54.070;10.012;2023-03-19T04:01:00;101035.09;;;7.07;100.00
30421;BME280;17218;54.070;10.012;2023-03-19T04:03:27;101029.13;;;7.08;100.00
30421;BME280;17218;54.070;10.012;2023-03-19T04:05:53;101029.97;;;7.09;100.00
30421;BME280;17218;54.070;10.012;2023-03-19T04:08:20;101026.47;;;7.03;100.00
30421;BME280;17218;54.070;10.012;2023-03-19T04:10:49;101030.72;;;6.98;100.00
30421;BME280;17218;54.070;10.012;2023-03-19T04:13:15;101032.41;;;6.98;100.00
30421;BME280;17218;54.070;10.012;2023-03-19T04:15:43;101028.06;;;6.94;100.00
30421;BME280;17218;54.070;10.012;2023-03-19T04:18:09;101028.94;;;6.92;100.00
30421;BME280;17218;54.070;10.012;2023-03-19T04:20:36;101028.94;;;6.94;100.00
30421;BME280;17218;54.070;10.012;2023-03-19T04:23:02;101028.06;;;6.92;100.00
30421;BME280;17218;54.070;10.012;2023-03-19T04:25:29;101029.81;;;6.93;100.00
30421;BME280;17218;54.070;10.012;2023-03-19T04:27:57;101032.28;;;6.88;100.00
30421;BME280;17218;54.070;10.012;2023-03-19T04:30:23;101030.56;;;6.86;100.00
30421;BME280;17218;54.070;10.012;2023-03-19T04:32:50;101032.25;;;6.82;100.00
30421;BME280;17218;54.070;10.012;2023-03-19T04:35:16;101033.06;;;6.79;100.00
30421;BME280;17218;54.070;10.012;2023-03-19T04:37:43;101039.88;;;6.77;100.00
30421;BME280;17218;54.070;10.012;2023-03-19T04:40:13;101031.28;;;6.75;100.00
30421;BME280;17218;54.070;10.012;2023-03-19T04:42:39;101033.84;;;6.74;100.00
30421;BME280;17218;54.070;10.012;2023-03-19T04:45:10;101039.06;;;6.78;100.00
30421;BME280;17218;54.070;10.012;2023-03-19T04:47:36;101038.22;;;6.83;100.00
30421;BME280;17218;54.070;10.012;2023-03-19T04:50:04;101040.91;;;6.90;100.00
30421;BME280;17218;54.070;10.012;2023-03-19T04:52:32;101045.16;;;6.85;100.00
30421;BME280;17218;54.070;10.012;2023-03-19T04:54:58;101043.25;;;6.73;100.00
30421;BME280;17218;54.070;10.012;2023-03-19T04:57:25;101039.72;;;6.65;100.00
30421;BME280;17218;54.070;10.012;2023-03-19T04:59:51;101040.66;;;6.72;100.00
30421;BME280;17218;54.070;10.012;2023-03-19T05:02:19;101041.69;;;6.85;100.00
30421;BME280;17218;54.070;10.012;2023-03-19T05:04:46;101040.13;;;6.95;100.00
30421;BME280;17218;54.070;10.012;2023-03-19T05:07:12;101044.41;;;6.97;100.00
30421;BME280;17218;54.070;10.012;2023-03-19T05:09:39;101031.66;;;7.05;100.00
30421;BME280;17218;54.070;10.012;2023-03-19T05:12:08;101037.66;;;7.04;100.00
30421;BME280;17218;54.070;10.012;2023-03-19T05:14:34;101038.53;;;7.06;100.00
30421;BME280;17218;54.070;10.012;2023-03-19T05:17:00;101035.13;;;7.09;100.00
30421;BME280;17218;54.070;10.012;2023-03-19T05:19:28;101034.22;;;7.03;100.00
30421;BME280;17218;54.070;10.012;2023-03-19T05:21:55;101024.81;;;7.09;100.00
30421;BME280;17218;54.070;10.012;2023-03-19T05:24:22;101031.63;;;7.02;100.00
30421;BME280;17218;54.070;10.012;2023-03-19T05:26:48;101023.09;;;7.06;100.00
30421;BME280;17218;54.070;10.012;2023-03-19T05:29:15;101025.63;;;7.04;100.00
30421;BME280;17218;54.070;10.012;2023-03-19T05:31:41;101031.63;;;7.02;100.00
30421;BME280;17218;54.070;10.012;2023-03-19T05:34:07;101031.63;;;7.02;100.00
30421;BME280;17218;54.070;10.012;2023-03-19T05:36:35;101025.44;;;6.87;100.00
30421;BME280;17218;54.070;10.012;2023-03-19T05:39:02;101042.69;;;6.95;100.00
30421;BME280;17218;54.070;10.012;2023-03-19T05:41:30;101039.25;;;6.96;100.00
30421;BME280;17218;54.070;10.012;2023-03-19T05:43:57;101047.75;;;6.88;100.00
30421;BME280;17218;54.070;10.012;2023-03-19T05:46:24;101030.63;;;6.92;100.00
30421;BME280;17218;54.070;10.012;2023-03-19T05:48:50;101041.00;;;6.95;100.00
30421;BME280;17218;54.070;10.012;2023-03-19T05:51:17;101046.22;;;7.04;100.00
30421;BME280;17218;54.070;10.012;2023-03-19T05:53:45;101046.34;;;7.14;100.00
30421;BME280;17218;54.070;10.012;2023-03-19T05:56:11;101051.66;;;7.26;100.00
30421;BME280;17218;54.070;10.012;2023-03-19T05:58:38;101048.38;;;7.42;100.00
30421;BME280;17218;54.070;10.012;2023-03-19T06:01:04;101036.44;;;7.48;100.00
30421;BME280;17218;54.070;10.012;2023-03-19T06:03:31;101033.06;;;7.54;100.00
30421;BME280;17218;54.070;10.012;2023-03-19T06:05:57;101039.03;;;7.53;100.00
30421;BME280;17218;54.070;10.012;2023-03-19T06:08:24;101037.38;;;7.58;100.00
30421;BME280;17218;54.070;10.012;2023-03-19T06:10:52;101039.16;;;7.64;100.00
30421;BME280;17218;54.070;10.012;2023-03-19T06:13:19;101041.81;;;7.72;100.00
30421;BME280;17218;54.070;10.012;2023-03-19T06:15:46;101048.75;;;7.78;100.00
30421;BME280;17218;54.070;10.012;2023-03-19T06:18:13;101044.47;;;7.81;100.00
30421;BME280;17218;54.070;10.012;2023-03-19T06:20:39;101034.97;;;7.77;100.00
30421;BME280;17218;54.070;10.012;2023-03-19T06:23:06;101035.84;;;7.81;100.00
30421;BME280;17218;54.070;10.012;2023-03-19T06:25:33;101034.16;;;7.83;100.00
30421;BME280;17218;54.070;10.012;2023-03-19T06:28:00;101034.16;;;7.81;100.00
30421;BME280;17218;54.070;10.012;2023-03-19T06:30:27;101035.84;;;7.78;100.00
30421;BME280;17218;54.070;10.012;2023-03-19T06:32:54;101041.00;;;7.79;100.00
30421;BME280;17218;54.070;10.012;2023-03-19T06:35:20;101041.88;;;7.77;100.00
30421;BME280;17218;54.070;10.012;2023-03-19T06:37:47;101050.44;;;7.79;100.00
30421;BME280;17218;54.070;10.012;2023-03-19T06:40:14;101043.59;;;7.82;100.00
30421;BME280;17218;54.070;10.012;2023-03-19T06:42:43;101044.53;;;7.87;100.00
30421;BME280;17218;54.070;10.012;2023-03-19T06:45:11;101040.28;;;7.96;100.00
30421;BME280;17218;54.070;10.012;2023-03-19T06:47:40;101049.81;;;8.06;100.00
30421;BME280;17218;54.070;10.012;2023-03-19T06:50:08;101044.78;;;8.17;100.00
30421;BME280;17218;54.070;10.012;2023-03-19T06:52:34;101052.59;;;8.30;100.00
30421;BME280;17218;54.070;10.012;2023-03-19T06:55:01;101056.09;;;8.37;100.00
30421;BME280;17218;54.070;10.012;2023-03-19T06:57:28;101039.78;;;8.47;100.00
30421;BME280;17218;54.070;10.012;2023-03-19T06:59:55;101051.88;;;8.53;100.00
30421;BME280;17218;54.070;10.012;2023-03-19T07:02:22;101051.13;;;8.66;100.00
30421;BME280;17218;54.070;10.012;2023-03-19T07:04:50;101050.38;;;8.80;100.00
30421;BME280;17218;54.070;10.012;2023-03-19T07:07:16;101053.84;;;8.91;100.00
30421;BME280;17218;54.070;10.012;2023-03-19T07:09:43;101068.56;;;9.08;100.00
30421;BME280;17218;54.070;10.012;2023-03-19T07:12:10;101055.72;;;9.24;100.00
30421;BME280;17218;54.070;10.012;2023-03-19T07:14:36;101069.53;;;9.40;100.00
30421;BME280;17218;54.070;10.012;2023-03-19T07:17:03;101077.34;;;9.60;100.00
30421;BME280;17218;54.070;10.012;2023-03-19T07:19:31;101064.44;;;9.76;100.00
30421;BME280;17218;54.070;10.012;2023-03-19T07:21:57;101073.09;;;9.90;100.00
30421;BME280;17218;54.070;10.012;2023-03-19T07:24:24;101073.09;;;10.06;100.00
30421;BME280;17218;54.070;10.012;2023-03-19T07:26:50;101071.38;;;10.18;100.00
30421;BME280;17218;54.070;10.012;2023-03-19T07:29:17;101073.94;;;10.41;100.00
30421;BME280;17218;54.070;10.012;2023-03-19T07:31:43;101067.91;;;10.59;100.00
30421;BME280;17218;54.070;10.012;2023-03-19T07:34:10;101067.88;;;10.67;100.00
30421;BME280;17218;54.070;10.012;2023-03-19T07:36:37;101069.63;;;10.67;100.00
30421;BME280;17218;54.070;10.012;2023-03-19T07:39:04;101067.88;;;10.66;100.00
30421;BME280;17218;54.070;10.012;2023-03-19T07:41:30;101069.59;;;10.65;100.00
30421;BME280;17218;54.070;10.012;2023-03-19T07:43:57;101062.72;;;10.56;100.00
30421;BME280;17218;54.070;10.012;2023-03-19T07:46:23;101070.50;;;10.59;100.00
30421;BME280;17218;54.070;10.012;2023-03-19T07:48:50;101072.16;;;10.82;100.00
30421;BME280;17218;54.070;10.012;2023-03-19T07:51:17;101077.31;;;10.96;100.00
30421;BME280;17218;54.070;10.012;2023-03-19T07:53:45;101080.69;;;11.16;100.00
30421;BME280;17218;54.070;10.012;2023-03-19T07:56:12;101078.91;;;11.21;100.00
30421;BME280;17218;54.070;10.012;2023-03-19T07:58:38;101081.56;;;11.10;100.00
30421;BME280;17218;54.070;10.012;2023-03-19T08:01:04;101073.72;;;11.27;100.00
30421;BME280;17218;54.070;10.012;2023-03-19T08:03:31;101074.56;;;11.31;100.00
30421;BME280;17218;54.070;10.012;2023-03-19T08:05:58;101078.91;;;11.29;100.00
30421;BME280;17218;54.070;10.012;2023-03-19T08:08:24;101084.81;;;11.54;100.00
30421;BME280;17218;54.070;10.012;2023-03-19T08:10:53;101081.34;;;11.59;100.00
30421;BME280;17218;54.070;10.012;2023-03-19T08:13:20;101079.53;;;11.67;100.00
30421;BME280;17218;54.070;10.012;2023-03-19T08:15:48;101076.97;;;11.68;100.00
30421;BME280;17218;54.070;10.012;2023-03-19T08:18:14;101075.13;;;11.78;100.00
30421;BME280;17218;54.070;10.012;2023-03-19T08:20:41;101072.41;;;11.97;100.00
30421;BME280;17218;54.070;10.012;2023-03-19T08:23:09;101082.66;;;12.22;100.00
30421;BME280;17218;54.070;10.012;2023-03-19T08:25:36;101077.44;;;12.24;100.00
30421;BME280;17218;54.070;10.012;2023-03-19T08:28:05;101074.66;;;12.41;100.00
30421;BME280;17218;54.070;10.012;2023-03-19T08:30:34;101079.13;;;12.30;100.00
30421;BME280;17218;54.070;10.012;2023-03-19T08:33:00;101074.91;;;12.14;100.00
30421;BME280;17218;54.070;10.012;2023-03-19T08:35:27;101081.75;;;12.23;100.00
30421;BME280;17218;54.070;10.012;2023-03-19T08:37:54;101080.69;;;12.48;100.00
30421;BME280;17218;54.070;10.012;2023-03-19T08:40:21;101084.69;;;12.79;100.00
30421;BME280;17218;54.070;10.012;2023-03-19T08:42:48;101075.34;;;12.62;100.00
30421;BME280;17218;54.070;10.012;2023-03-19T08:45:16;101082.25;;;12.64;100.00
30421;BME280;17218;54.070;10.012;2023-03-19T08:47:43;101065.06;;;12.51;100.00
30421;BME280;17218;54.070;10.012;2023-03-19T08:50:10;101078.00;;;12.54;100.00
30421;BME280;17218;54.070;10.012;2023-03-19T08:52:37;101085.47;;;12.85;100.00
30421;BME280;17218;54.070;10.012;2023-03-19T08:55:05;101081.06;;;12.92;100.00
30421;BME280;17218;54.070;10.012;2023-03-19T08:57:32;101092.16;;;13.08;100.00
30421;BME280;17218;54.070;10.012;2023-03-19T08:59:58;101085.97;;;13.17;100.00
30421;BME280;17218;54.070;10.012;2023-03-19T09:02:26;101077.25;;;13.21;100.00
30421;BME280;17218;54.070;10.012;2023-03-19T09:04:53;101075.00;;;12.92;100.00
30421;BME280;17218;54.070;10.012;2023-03-19T09:07:19;101086.72;;;13.27;100.00
30421;BME280;17218;54.070;10.012;2023-03-19T09:09:47;101081.41;;;13.35;100.00
30421;BME280;17218;54.070;10.012;2023-03-19T09:12:15;101083.81;;;13.49;100.00
30421;BME280;17218;54.070;10.012;2023-03-19T09:14:42;101087.41;;;13.42;100.00
30421;BME280;17218;54.070;10.012;2023-03-19T09:17:09;101088.22;;;13.45;100.00
30421;BME280;17218;54.070;10.012;2023-03-19T09:19:38;101084.69;;;13.50;100.00
30421;BME280;17218;54.070;10.012;2023-03-19T09:22:05;101083.84;;;13.47;100.00
30421;BME280;17218;54.070;10.012;2023-03-19T09:24:32;101089.72;;;13.64;100.00
30421;BME280;17218;54.070;10.012;2023-03-19T09:26:58;101105.34;;;13.64;100.00
30421;BME280;17218;54.070;10.012;2023-03-19T09:29:25;101097.50;;;13.65;100.00
30421;BME280;17218;54.070;10.012;2023-03-19T09:31:51;101101.34;;;13.99;100.00
30421;BME280;17218;54.070;10.012;2023-03-19T09:34:18;101100.75;;;13.80;100.00
30421;BME280;17218;54.070;10.012;2023-03-19T09:36:46;101105.69;;;13.99;100.00
30421;BME280;17218;54.070;10.012;2023-03-19T09:39:12;101102.13;;;14.04;100.00
30421;BME280;17218;54.070;10.012;2023-03-19T09:41:48;101099.00;;;14.36;100.00
30421;BME280;17218;54.070;10.012;2023-03-19T09:44:20;101096.88;;;14.58;100.00
30421;BME280;17218;54.070;10.012;2023-03-19T09:46:54;101100.22;;;14.65;100.00
30421;BME280;17218;54.070;10.012;2023-03-19T09:49:24;101099.28;;;14.69;100.00
30421;BME280;17218;54.070;10.012;2023-03-19T09:51:55;101097.50;;;14.71;100.00
30421;BME280;17218;54.070;10.012;2023-03-19T09:54:30;101098.03;;;14.90;100.00
30421;BME280;17218;54.070;10.012;2023-03-19T09:56:57;101099.03;;;14.85;100.00
30421;BME280;17218;54.070;10.012;2023-03-19T09:59:26;101103.59;;;14.72;100.00
30421;BME280;17218;54.070;10.012;2023-03-19T10:01:58;101103.53;;;14.75;100.00
30421;BME280;17218;54.070;10.012;2023-03-19T10:04:42;101110.28;;;14.87;100.00
30421;BME280;17218;54.070;10.012;2023-03-19T10:07:27;101117.75;;;15.06;100.00
30421;BME280;17218;54.070;10.012;2023-03-19T10:10:14;101109.22;;;15.38;100.00
30421;BME280;17218;54.070;10.012;2023-03-19T10:12:53;101120.72;;;15.30;100.00
30421;BME280;17218;54.070;10.012;2023-03-19T10:15:26;101115.28;;;15.41;100.00
30421;BME280;17218;54.070;10.012;2023-03-19T10:17:59;101117.69;;;15.50;100.00
30421;BME280;17218;54.070;10.012;2023-03-19T10:20:34;101120.66;;;15.34;100.00
30421;BME280;17218;54.070;10.012;2023-03-19T10:23:16;101122.34;;;15.35;100.00
30421;BME280;17218;54.070;10.012;2023-03-19T10:25:48;101117.25;;;15.31;100.00
30421;BME280;17218;54.070;10.012;2023-03-19T10:28:17;101123.91;;;15.46;100.00
30421;BME280;17218;54.070;10.012;2023-03-19T10:30:49;101129.34;;;15.74;100.00
30421;BME280;17218;54.070;10.012;2023-03-19T10:33:22;101120.06;;;16.01;100.00
30421;BME280;17218;54.070;10.012;2023-03-19T10:35:56;101118.81;;;16.17;100.00
30421;BME280;17218;54.070;10.012;2023-03-19T10:38:25;101130.13;;;16.16;100.00
30421;BME280;17218;54.070;10.012;2023-03-19T10:41:19;101117.94;;;16.17;100.00
30421;BME280;17218;54.070;10.012;2023-03-19T10:43:52;101125.47;;;16.29;100.00
30421;BME280;17218;54.070;10.012;2023-03-19T10:46:19;101120.22;;;16.29;100.00
30421;BME280;17218;54.070;10.012;2023-03-19T10:48:47;101135.31;;;15.80;100.00
30421;BME280;17218;54.070;10.012;2023-03-19T10:51:15;101132.56;;;15.86;100.00
30421;BME280;17218;54.070;10.012;2023-03-19T10:53:44;101146.75;;;15.34;100.00
30421;BME280;17218;54.070;10.012;2023-03-19T10:56:18;101133.31;;;15.10;100.00
30421;BME280;17218;54.070;10.012;2023-03-19T10:58:58;101142.06;;;15.08;100.00
30421;BME280;17218;54.070;10.012;2023-03-19T11:01:31;101136.09;;;15.01;100.00
30421;BME280;17218;54.070;10.012;2023-03-19T11:03:59;101146.56;;;14.99;100.00
30421;BME280;17218;54.070;10.012;2023-03-19T11:06:30;101141.94;;;14.65;100.00
30421;BME280;17218;54.070;10.012;2023-03-19T11:09:00;101141.00;;;14.69;100.00
30421;BME280;17218;54.070;10.012;2023-03-19T11:11:32;101140.84;;;14.78;100.00
30421;BME280;17218;54.070;10.012;2023-03-19T11:14:06;101144.28;;;14.82;100.00
30421;BME280;17218;54.070;10.012;2023-03-19T11:16:45;101139.94;;;14.83;100.00
30421;BME280;17218;54.070;10.012;2023-03-19T11:19:17;101142.41;;;14.89;100.00
30421;BME280;17218;54.070;10.012;2023-03-19T11:21:53;101149.06;;;15.04;100.00
30421;BME280;17218;54.070;10.012;2023-03-19T11:24:26;101150.94;;;14.99;100.00
30421;BME280;17218;54.070;10.012;2023-03-19T11:26:53;101149.25;;;14.95;100.00
30421;BME280;17218;54.070;10.012;2023-03-19T11:29:21;101143.03;;;15.02;100.00
30421;BME280;17218;54.070;10.012;2023-03-19T11:31:54;101148.72;;;14.75;100.00
30421;BME280;17218;54.070;10.012;2023-03-19T11:34:28;101145.59;;;15.03;100.00
30421;BME280;17218;54.070;10.012;2023-03-19T11:37:06;101141.78;;;15.22;100.00
30421;BME280;17218;54.070;10.012;2023-03-19T11:39:44;101142.47;;;15.30;100.00
30421;BME280;17218;54.070;10.012;2023-03-19T11:42:36;101143.31;;;15.32;100.00
30421;BME280;17218;54.070;10.012;2023-03-19T11:45:16;101143.38;;;15.27;100.00
30421;BME280;17218;54.070;10.012;2023-03-19T11:47:50;101142.22;;;15.43;100.00
30421;BME280;17218;54.070;10.012;2023-03-19T11:50:24;101147.50;;;15.79;100.00
30421;BME280;17218;54.070;10.012;2023-03-19T11:53:08;101137.75;;;16.27;100.00
30421;BME280;17218;54.070;10.012;2023-03-19T11:55:42;101136.47;;;16.42;100.00
30421;BME280;17218;54.070;10.012;2023-03-19T12:01:12;101132.31;;;16.68;100.00
30421;BME280;17218;54.070;10.012;2023-03-19T12:03:55;101142.09;;;16.95;100.00
30421;BME280;17218;54.070;10.012;2023-03-19T12:06:37;101125.16;;;17.07;100.00
30421;BME280;17218;54.070;10.012;2023-03-19T12:09:17;101138.50;;;16.98;100.00
30421;BME280;17218;54.070;10.012;2023-03-19T12:14:35;101135.69;;;17.05;100.00
30421;BME280;17218;54.070;10.012;2023-03-19T12:17:16;101137.78;;;16.59;100.00
30421;BME280;17218;54.070;10.012;2023-03-19T12:19:56;101136.09;;;16.58;100.00
30421;BME280;17218;54.070;10.012;2023-03-19T12:22:37;101132.34;;;16.67;100.00
30421;BME280;17218;54.070;10.012;2023-03-19T12:25:18;101139.16;;;17.06;100.00
30421;BME280;17218;54.070;10.012;2023-03-19T12:27:53;101129.72;;;17.00;100.00
30421;BME280;17218;54.070;10.012;2023-03-19T12:30:29;101131.63;;;16.95;100.00
30421;BME280;17218;54.070;10.012;2023-03-19T12:33:09;101130.59;;;17.01;100.00
30421;BME280;17218;54.070;10.012;2023-03-19T12:35:37;101129.84;;;16.64;100.00
30421;BME280;17218;54.070;10.012;2023-03-19T12:38:11;101130.91;;;16.56;100.00
30421;BME280;17218;54.070;10.012;2023-03-19T12:40:42;101133.34;;;16.63;100.00
30421;BME280;17218;54.070;10.012;2023-03-19T12:43:16;101127.97;;;16.34;100.00
30421;BME280;17218;54.070;10.012;2023-03-19T12:45:46;101124.84;;;16.19;100.00
30421;BME280;17218;54.070;10.012;2023-03-19T12:48:18;101129.06;;;15.87;100.00
30421;BME280;17218;54.070;10.012;2023-03-19T12:50:50;101133.31;;;15.53;100.00